sensor_id;sensor_type;location;lat;lon;timestamp;pressure;altitude;pressure_sealevel;temperature;humidity
51603;BME280;37954;51.980;5.850;2022-11-15T00:02:06;100537.53;;;8.58;83.90
51603;BME280;37954;51.980;5.850;2022-11-15T00:06:36;100548.63;;;8.62;84.38
51603;BME280;37954;51.980;5.850;2022-11-15T00:11:10;100546.34;;;8.65;84.30
51603;BME280;37954;51.980;5.850;2022-11-15T00:15:41;100544.03;;;8.69;84.64
51603;BME280;37954;51.980;5.850;2022-11-15T00:20:11;100526.13;;;8.69;84.41
51603;BME280;37954;51.980;5.850;2022-11-15T00:24:41;100532.09;;;8.71;84.45
51603;BME280;37954;51.980;5.850;2022-11-15T00:29:12;100525.69;;;8.72;84.62
51603;BME280;37954;51.980;5.850;2022-11-15T00:33:43;100527.94;;;8.76;85.03
51603;BME280;37954;51.980;5.850;2022-11-15T00:38:14;100524.84;;;8.79;85.14
51603;BME280;37954;51.980;5.850;2022-11-15T00:42:44;100513.09;;;8.80;84.91
51603;BME280;37954;51.980;5.850;2022-11-15T00:47:15;100515.56;;;8.81;85.50
51603;BME280;37954;51.980;5.850;2022-11-15T00:51:45;100520.91;;;8.81;86.01
51603;BME280;37954;51.980;5.850;2022-11-15T00:56:15;100510.63;;;8.78;86.30
51603;BME280;37954;51.980;5.850;2022-11-15T01:00:45;100505.88;;;8.80;86.63
51603;BME280;37954;51.980;5.850;2022-11-15T01:05:15;100504.38;;;8.84;86.94
51603;BME280;37954;51.980;5.850;2022-11-15T01:09:45;100498.44;;;8.82;86.79
51603;BME280;37954;51.980;5.850;2022-11-15T01:14:15;100490.78;;;8.86;86.56
51603;BME280;37954;51.980;5.850;2022-11-15T01:18:48;100492.63;;;8.85;86.60
51603;BME280;37954;51.980;5.850;2022-11-15T01:23:19;100481.50;;;8.88;86.44
51603;BME280;37954;51.980;5.850;2022-11-15T01:27:48;100481.66;;;8.93;86.42
51603;BME280;37954;51.980;5.850;2022-11-15T01:32:18;100477.31;;;8.99;86.46
51603;BME280;37954;51.980;5.850;2022-11-15T01:36:48;100467.97;;;9.01;85.93
51603;BME280;37954;51.980;5.850;2022-11-15T01:41:21;100463.22;;;9.03;86.00
51603;BME280;37954;51.980;5.850;2022-11-15T01:50:51;100469.34;;;9.11;85.80
51603;BME280;37954;51.980;5.850;2022-11-15T01:55:24;100459.03;;;9.14;86.11
51603;BME280;37954;51.980;5.850;2022-11-15T01:59:57;100457.28;;;9.20;86.21
51603;BME280;37954;51.980;5.850;2022-11-15T02:04:32;100453.75;;;9.26;86.24
51603;BME280;37954;51.980;5.850;2022-11-15T02:09:03;100453.31;;;9.29;86.32
51603;BME280;37954;51.980;5.850;2022-11-15T02:13:33;100452.44;;;9.35;86.37
51603;BME280;37954;51.980;5.850;2022-11-15T02:18:10;100446.97;;;9.41;86.25
51603;BME280;37954;51.980;5.850;2022-11-15T02:23:11;100447.13;;;9.47;86.18
51603;BME280;37954;51.980;5.850;2022-11-15T02:32:52;100439.97;;;9.59;86.29
51603;BME280;37954;51.980;5.850;2022-11-15T02:37:51;100438.88;;;9.66;86.55
51603;BME280;37954;51.980;5.850;2022-11-15T02:42:27;100426.63;;;9.70;86.42
51603;BME280;37954;51.980;5.850;2022-11-15T02:47:19;100417.53;;;9.71;86.88
51603;BME280;37954;51.980;5.850;2022-11-15T02:51:51;100420.38;;;9.76;87.19
51603;BME280;37954;51.980;5.850;2022-11-15T02:56:22;100416.56;;;9.84;86.82
51603;BME280;37954;51.980;5.850;2022-11-15T03:01:04;100396.53;;;9.87;86.83
51603;BME280;37954;51.980;5.850;2022-11-15T03:15:00;100392.38;;;10.02;86.82
51603;BME280;37954;51.980;5.850;2022-11-15T03:19:46;100383.63;;;10.07;87.07
51603;BME280;37954;51.980;5.850;2022-11-15T03:24:17;100398.00;;;10.12;87.36
51603;BME280;37954;51.980;5.850;2022-11-15T03:29:06;100383.72;;;10.19;87.53
51603;BME280;37954;51.980;5.850;2022-11-15T03:33:39;100391.06;;;10.23;87.72
51603;BME280;37954;51.980;5.850;2022-11-15T03:38:20;100391.56;;;10.32;88.59
51603;BME280;37954;51.980;5.850;2022-11-15T03:47:45;100394.63;;;10.47;88.85
51603;BME280;37954;51.980;5.850;2022-11-15T03:52:18;100393.47;;;10.55;89.23
51603;BME280;37954;51.980;5.850;2022-11-15T03:56:48;100402.22;;;10.62;89.40
51603;BME280;37954;51.980;5.850;2022-11-15T04:01:18;100391.16;;;10.70;89.61
51603;BME280;37954;51.980;5.850;2022-11-15T04:05:49;100398.50;;;10.74;89.94
51603;BME280;37954;51.980;5.850;2022-11-15T04:10:18;100397.00;;;10.78;90.36
51603;BME280;37954;51.980;5.850;2022-11-15T04:14:48;100406.22;;;10.82;90.57
51603;BME280;37954;51.980;5.850;2022-11-15T04:19:36;100398.88;;;10.90;90.64
51603;BME280;37954;51.980;5.850;2022-11-15T04:24:25;100393.25;;;10.91;90.83
51603;BME280;37954;51.980;5.850;2022-11-15T04:28:55;100382.03;;;10.94;90.90
51603;BME280;37954;51.980;5.850;2022-11-15T04:33:43;100388.81;;;10.97;90.58
51603;BME280;37954;51.980;5.850;2022-11-15T04:38:13;100389.63;;;10.97;90.99
51603;BME280;37954;51.980;5.850;2022-11-15T04:42:43;100388.94;;;11.02;90.76
51603;BME280;37954;51.980;5.850;2022-11-15T04:47:13;100384.16;;;11.04;91.04
51603;BME280;37954;51.980;5.850;2022-11-15T04:51:44;100386.94;;;11.09;91.03
51603;BME280;37954;51.980;5.850;2022-11-15T04:56:14;100395.94;;;11.14;90.72
51603;BME280;37954;51.980;5.850;2022-11-15T05:00:44;100384.13;;;11.15;90.86
51603;BME280;37954;51.980;5.850;2022-11-15T05:05:14;100388.81;;;11.20;90.52
51603;BME280;37954;51.980;5.850;2022-11-15T05:09:44;100394.78;;;11.22;90.96
51603;BME280;37954;51.980;5.850;2022-11-15T05:14:15;100387.03;;;11.26;90.95
51603;BME280;37954;51.980;5.850;2022-11-15T05:18:45;100383.28;;;11.27;90.88
51603;BME280;37954;51.980;5.850;2022-11-15T05:23:15;100375.34;;;11.32;91.09
51603;BME280;37954;51.980;5.850;2022-11-15T05:27:45;100374.88;;;11.35;91.04
51603;BME280;37954;51.980;5.850;2022-11-15T05:32:16;100381.41;;;11.39;91.16
51603;BME280;37954;51.980;5.850;2022-11-15T05:36:47;100381.75;;;11.42;91.15
51603;BME280;37954;51.980;5.850;2022-11-15T05:41:21;100380.69;;;11.43;91.22
51603;BME280;37954;51.980;5.850;2022-11-15T05:45:54;100387.47;;;11.46;91.30
51603;BME280;37954;51.980;5.850;2022-11-15T05:50:24;100390.50;;;11.49;91.51
51603;BME280;37954;51.980;5.850;2022-11-15T05:54:56;100387.00;;;11.49;91.35
51603;BME280;37954;51.980;5.850;2022-11-15T05:59:29;100392.13;;;11.50;91.87
51603;BME280;37954;51.980;5.850;2022-11-15T06:04:00;100394.59;;;11.52;91.80
51603;BME280;37954;51.980;5.850;2022-11-15T06:08:30;100400.56;;;11.54;91.93
51603;BME280;37954;51.980;5.850;2022-11-15T06:13:02;100395.75;;;11.56;91.68
51603;BME280;37954;51.980;5.850;2022-11-15T06:17:32;100396.56;;;11.57;91.86
51603;BME280;37954;51.980;5.850;2022-11-15T06:22:02;100396.56;;;11.57;91.94
51603;BME280;37954;51.980;5.850;2022-11-15T06:26:32;100396.09;;;11.60;92.31
51603;BME280;37954;51.980;5.850;2022-11-15T06:31:10;100391.78;;;11.59;92.09
51603;BME280;37954;51.980;5.850;2022-11-15T06:35:43;100397.97;;;11.59;92.37
51603;BME280;37954;51.980;5.850;2022-11-15T06:40:13;100401.81;;;11.63;92.11
51603;BME280;37954;51.980;5.850;2022-11-15T06:44:43;100417.47;;;11.66;92.14
51603;BME280;37954;51.980;5.850;2022-11-15T06:49:13;100414.53;;;11.68;92.53
51603;BME280;37954;51.980;5.850;2022-11-15T06:53:43;100411.38;;;11.71;92.46
51603;BME280;37954;51.980;5.850;2022-11-15T06:58:13;100415.25;;;11.75;92.16
51603;BME280;37954;51.980;5.850;2022-11-15T07:02:44;100428.50;;;11.76;92.23
51603;BME280;37954;51.980;5.850;2022-11-15T07:07:14;100421.78;;;11.79;92.36
51603;BME280;37954;51.980;5.850;2022-11-15T07:11:44;100433.59;;;11.78;91.93
51603;BME280;37954;51.980;5.850;2022-11-15T07:16:14;100439.56;;;11.80;92.20
51603;BME280;37954;51.980;5.850;2022-11-15T07:20:44;100429.03;;;11.78;92.20
51603;BME280;37954;51.980;5.850;2022-11-15T07:25:15;100439.81;;;11.78;92.25
51603;BME280;37954;51.980;5.850;2022-11-15T07:29:45;100445.44;;;11.77;92.59
51603;BME280;37954;51.980;5.850;2022-11-15T07:34:15;100441.94;;;11.76;92.34
51603;BME280;37954;51.980;5.850;2022-11-15T07:38:45;100449.19;;;11.76;92.86
51603;BME280;37954;51.980;5.850;2022-11-15T07:43:16;100448.34;;;11.75;92.99
51603;BME280;37954;51.980;5.850;2022-11-15T07:47:49;100452.69;;;11.76;92.97
51603;BME280;37954;51.980;5.850;2022-11-15T07:52:19;100440.28;;;11.75;92.87
51603;BME280;37954;51.980;5.850;2022-11-15T07:56:50;100444.63;;;11.76;92.83
51603;BME280;37954;51.980;5.850;2022-11-15T08:01:20;100444.94;;;11.80;92.72
51603;BME280;37954;51.980;5.850;2022-11-15T08:05:51;100443.44;;;11.84;92.57
51603;BME280;37954;51.980;5.850;2022-11-15T08:10:21;100448.56;;;11.85;92.61
51603;BME280;37954;51.980;5.850;2022-11-15T08:14:51;100436.84;;;11.92;92.69
51603;BME280;37954;51.980;5.850;2022-11-15T08:19:22;100440.22;;;11.99;92.73
51603;BME280;37954;51.980;5.850;2022-11-15T08:23:52;100430.03;;;12.01;92.92
51603;BME280;37954;51.980;5.850;2022-11-15T08:28:22;100426.28;;;12.02;92.97
51603;BME280;37954;51.980;5.850;2022-11-15T08:32:53;100430.47;;;12.09;92.84
51603;BME280;37954;51.980;5.850;2022-11-15T08:37:25;100425.25;;;12.19;92.57
51603;BME280;37954;51.980;5.850;2022-11-15T08:41:55;100425.53;;;12.35;92.82
51603;BME280;37954;51.980;5.850;2022-11-15T08:46:25;100421.41;;;12.44;92.66
51603;BME280;37954;51.980;5.850;2022-11-15T08:50:56;100432.00;;;12.50;92.44
51603;BME280;37954;51.980;5.850;2022-11-15T08:55:26;100432.09;;;12.55;92.17
51603;BME280;37954;51.980;5.850;2022-11-15T08:59:57;100439.47;;;12.60;91.79
51603;BME280;37954;51.980;5.850;2022-11-15T09:04:27;100429.75;;;12.76;91.97
51603;BME280;37954;51.980;5.850;2022-11-15T09:08:57;100424.69;;;12.96;91.44
51603;BME280;37954;51.980;5.850;2022-11-15T09:13:27;100424.47;;;13.03;91.05
51603;BME280;37954;51.980;5.850;2022-11-15T09:17:58;100432.53;;;12.98;90.29
51603;BME280;37954;51.980;5.850;2022-11-15T09:22:29;100418.47;;;12.96;89.92
51603;BME280;37954;51.980;5.850;2022-11-15T09:26:59;100406.53;;;12.92;89.01
51603;BME280;37954;51.980;5.850;2022-11-15T09:31:29;100410.88;;;12.93;88.85
51603;BME280;37954;51.980;5.850;2022-11-15T09:36:01;100404.31;;;13.05;88.70
51603;BME280;37954;51.980;5.850;2022-11-15T09:40:32;100397.44;;;13.14;88.67
51603;BME280;37954;51.980;5.850;2022-11-15T09:45:32;100398.25;;;13.32;87.76
51603;BME280;37954;51.980;5.850;2022-11-15T09:50:34;100392.16;;;13.85;86.30
51603;BME280;37954;51.980;5.850;2022-11-15T09:54:49;100396.84;;;13.94;85.45
51603;BME280;37954;51.980;5.850;2022-11-15T10:03:35;100381.28;;;14.07;83.41
51603;BME280;37954;51.980;5.850;2022-11-15T10:08:11;100367.88;;;13.90;82.66
51603;BME280;37954;51.980;5.850;2022-11-15T10:12:25;100379.97;;;13.82;82.73
51603;BME280;37954;51.980;5.850;2022-11-15T10:21:02;100367.38;;;13.66;82.06
51603;BME280;37954;51.980;5.850;2022-11-15T10:25:23;100359.94;;;13.56;81.96
51603;BME280;37954;51.980;5.850;2022-11-15T10:29:35;100355.59;;;13.50;81.48
51603;BME280;37954;51.980;5.850;2022-11-15T10:33:47;100362.47;;;13.63;81.71
51603;BME280;37954;51.980;5.850;2022-11-15T10:38:05;100359.88;;;13.73;81.23
51603;BME280;37954;51.980;5.850;2022-11-15T10:42:29;100336.22;;;13.80;79.78
51603;BME280;37954;51.980;5.850;2022-11-15T10:46:44;100338.25;;;14.27;79.13
51603;BME280;37954;51.980;5.850;2022-11-15T10:50:58;100337.25;;;14.38;76.19
51603;BME280;37954;51.980;5.850;2022-11-15T10:59:29;100316.44;;;14.34;74.61
51603;BME280;37954;51.980;5.850;2022-11-15T11:04:09;100326.69;;;14.32;74.33
51603;BME280;37954;51.980;5.850;2022-11-15T11:08:24;100320.88;;;14.45;74.58
51603;BME280;37954;51.980;5.850;2022-11-15T11:12:36;100314.50;;;14.61;73.13
51603;BME280;37954;51.980;5.850;2022-11-15T11:16:51;100305.97;;;14.79;71.38
51603;BME280;37954;51.980;5.850;2022-11-15T11:21:10;100305.22;;;14.94;70.20
51603;BME280;37954;51.980;5.850;2022-11-15T11:42:54;100287.41;;;15.71;63.75
51603;BME280;37954;51.980;5.850;2022-11-15T11:47:12;100288.50;;;15.70;61.75
51603;BME280;37954;51.980;5.850;2022-11-15T11:51:36;100298.50;;;15.69;61.57
51603;BME280;37954;51.980;5.850;2022-11-15T11:55:53;100296.75;;;15.43;60.23
51603;BME280;37954;51.980;5.850;2022-11-15T12:00:23;100278.03;;;15.21;61.07
51603;BME280;37954;51.980;5.850;2022-11-15T12:04:40;100266.09;;;15.12;61.24
51603;BME280;37954;51.980;5.850;2022-11-15T12:09:10;100265.84;;;15.18;61.47
51603;BME280;37954;51.980;5.850;2022-11-15T12:13:26;100241.72;;;15.07;61.86
51603;BME280;37954;51.980;5.850;2022-11-15T12:17:41;100249.28;;;15.00;61.99
51603;BME280;37954;51.980;5.850;2022-11-15T12:26:18;100233.44;;;14.66;60.90
51603;BME280;37954;51.980;5.850;2022-11-15T12:30:46;100217.16;;;14.56;61.24
51603;BME280;37954;51.980;5.850;2022-11-15T12:35:02;100210.00;;;14.35;61.54
51603;BME280;37954;51.980;5.850;2022-11-15T12:39:15;100193.13;;;14.22;61.33
51603;BME280;37954;51.980;5.850;2022-11-15T12:43:41;100182.03;;;14.14;61.91
51603;BME280;37954;51.980;5.850;2022-11-15T12:48:20;100180.66;;;14.11;62.42
51603;BME280;37954;51.980;5.850;2022-11-15T12:52:27;100167.09;;;14.06;62.31
51603;BME280;37954;51.980;5.850;2022-11-15T12:56:39;100155.22;;;14.02;62.49
51603;BME280;37954;51.980;5.850;2022-11-15T13:00:51;100154.28;;;13.86;62.01
51603;BME280;37954;51.980;5.850;2022-11-15T13:13:47;100138.38;;;13.85;62.07
51603;BME280;37954;51.980;5.850;2022-11-15T13:17:58;100139.66;;;13.77;61.67
51603;BME280;37954;51.980;5.850;2022-11-15T13:22:11;100117.50;;;13.75;61.75
51603;BME280;37954;51.980;5.850;2022-11-15T13:26:41;100116.94;;;13.73;62.28
51603;BME280;37954;51.980;5.850;2022-11-15T13:30:55;100119.06;;;13.71;62.28
51603;BME280;37954;51.980;5.850;2022-11-15T13:35:07;100114.47;;;13.67;62.12
51603;BME280;37954;51.980;5.850;2022-11-15T13:39:33;100104.50;;;13.67;62.67
51603;BME280;37954;51.980;5.850;2022-11-15T13:43:45;100090.97;;;13.62;62.46
51603;BME280;37954;51.980;5.850;2022-11-15T13:47:58;100096.09;;;13.64;62.25
51603;BME280;37954;51.980;5.850;2022-11-15T13:52:13;100097.97;;;13.63;62.75
51603;BME280;37954;51.980;5.850;2022-11-15T13:56:26;100076.59;;;13.56;62.53
51603;BME280;37954;51.980;5.850;2022-11-15T14:00:43;100081.19;;;13.56;62.75
51603;BME280;37954;51.980;5.850;2022-11-15T14:05:16;100080.94;;;13.57;62.73
51603;BME280;37954;51.980;5.850;2022-11-15T14:09:39;100060.09;;;13.53;62.74
51603;BME280;37954;51.980;5.850;2022-11-15T14:18:49;100059.53;;;13.46;63.37
51603;BME280;37954;51.980;5.850;2022-11-15T14:23:04;100046.78;;;13.36;63.55
51603;BME280;37954;51.980;5.850;2022-11-15T14:31:27;100030.34;;;13.38;63.54
51603;BME280;37954;51.980;5.850;2022-11-15T14:35:39;100029.81;;;13.41;63.85
51603;BME280;37954;51.980;5.850;2022-11-15T14:39:51;100021.97;;;13.39;64.03
51603;BME280;37954;51.980;5.850;2022-11-15T14:44:04;100017.34;;;13.35;64.02
51603;BME280;37954;51.980;5.850;2022-11-15T14:48:16;100009.53;;;13.33;64.19
51603;BME280;37954;51.980;5.850;2022-11-15T14:52:29;99992.50;;;13.28;64.30
51603;BME280;37954;51.980;5.850;2022-11-15T14:56:44;99988.44;;;13.25;64.45
51603;BME280;37954;51.980;5.850;2022-11-15T15:00:56;99983.00;;;13.20;64.42
51603;BME280;37954;51.980;5.850;2022-11-15T15:05:19;99964.94;;;13.20;64.41
51603;BME280;37954;51.980;5.850;2022-11-15T15:09:31;99954.38;;;13.14;64.33
51603;BME280;37954;51.980;5.850;2022-11-15T15:13:42;99957.66;;;13.16;64.17
51603;BME280;37954;51.980;5.850;2022-11-15T15:17:54;99953.00;;;13.11;64.48
51603;BME280;37954;51.980;5.850;2022-11-15T15:22:16;99937.88;;;13.10;64.54
51603;BME280;37954;51.980;5.850;2022-11-15T15:26:28;99933.31;;;13.11;64.58
51603;BME280;37954;51.980;5.850;2022-11-15T15:30:40;99922.47;;;13.06;64.65
51603;BME280;37954;51.980;5.850;2022-11-15T15:34:51;99916.28;;;13.05;64.60
51603;BME280;37954;51.980;5.850;2022-11-15T15:39:03;99909.50;;;13.03;64.48
51603;BME280;37954;51.980;5.850;2022-11-15T15:43:14;99904.38;;;13.01;64.90
51603;BME280;37954;51.980;5.850;2022-11-15T15:47:26;99906.00;;;12.97;64.80
51603;BME280;37954;51.980;5.850;2022-11-15T15:51:37;99887.88;;;12.93;64.99
51603;BME280;37954;51.980;5.850;2022-11-15T15:55:49;99885.72;;;12.89;64.90
51603;BME280;37954;51.980;5.850;2022-11-15T16:00:02;99882.25;;;12.94;65.19
51603;BME280;37954;51.980;5.850;2022-11-15T16:04:22;99880.88;;;12.92;65.11
51603;BME280;37954;51.980;5.850;2022-11-15T16:08:34;99874.97;;;12.95;65.23
51603;BME280;37954;51.980;5.850;2022-11-15T16:13:06;99870.69;;;12.99;65.47
51603;BME280;37954;51.980;5.850;2022-11-15T16:17:20;99873.09;;;13.00;65.77
51603;BME280;37954;51.980;5.850;2022-11-15T16:21:32;99856.66;;;13.02;66.00
51603;BME280;37954;51.980;5.850;2022-11-15T16:25:46;99859.34;;;13.02;66.00
51603;BME280;37954;51.980;5.850;2022-11-15T16:29:58;99849.69;;;13.06;66.41
51603;BME280;37954;51.980;5.850;2022-11-15T16:34:10;99849.16;;;13.09;66.34
51603;BME280;37954;51.980;5.850;2022-11-15T16:38:21;99826.50;;;13.05;66.86
51603;BME280;37954;51.980;5.850;2022-11-15T16:42:33;99838.91;;;13.06;66.73
51603;BME280;37954;51.980;5.850;2022-11-15T16:46:44;99842.19;;;13.13;67.05
51603;BME280;37954;51.980;5.850;2022-11-15T16:51:02;99839.78;;;13.16;67.13
51603;BME280;37954;51.980;5.850;2022-11-15T16:55:15;99847.59;;;13.18;67.50
51603;BME280;37954;51.980;5.850;2022-11-15T16:59:26;99847.59;;;13.18;67.71
51603;BME280;37954;51.980;5.850;2022-11-15T17:03:38;99856.00;;;13.21;67.74
51603;BME280;37954;51.980;5.850;2022-11-15T17:07:51;99857.88;;;13.21;67.82
51603;BME280;37954;51.980;5.850;2022-11-15T17:12:05;99853.03;;;13.23;67.89
51603;BME280;37954;51.980;5.850;2022-11-15T17:16:17;99848.38;;;13.13;68.05
51603;BME280;37954;51.980;5.850;2022-11-15T17:20:29;99861.13;;;13.23;68.26
51603;BME280;37954;51.980;5.850;2022-11-15T17:24:40;99857.63;;;13.22;68.30
51603;BME280;37954;51.980;5.850;2022-11-15T17:28:55;99848.97;;;13.20;68.43
51603;BME280;37954;51.980;5.850;2022-11-15T17:33:07;99838.41;;;13.14;69.01
51603;BME280;37954;51.980;5.850;2022-11-15T17:37:19;99847.34;;;13.19;69.35
51603;BME280;37954;51.980;5.850;2022-11-15T17:41:30;99831.63;;;13.06;70.21
51603;BME280;37954;51.980;5.850;2022-11-15T17:45:42;99844.28;;;13.06;71.05
51603;BME280;37954;51.980;5.850;2022-11-15T17:49:54;99839.66;;;13.01;71.40
51603;BME280;37954;51.980;5.850;2022-11-15T17:54:05;99841.56;;;13.01;71.44
51603;BME280;37954;51.980;5.850;2022-11-15T17:58:17;99833.19;;;12.97;71.68
51603;BME280;37954;51.980;5.850;2022-11-15T18:02:29;99828.34;;;12.99;72.17
51603;BME280;37954;51.980;5.850;2022-11-15T18:06:41;99821.34;;;12.98;72.70
51603;BME280;37954;51.980;5.850;2022-11-15T18:11:04;99822.69;;;12.96;73.14
51603;BME280;37954;51.980;5.850;2022-11-15T18:15:16;99815.09;;;12.93;73.67
51603;BME280;37954;51.980;5.850;2022-11-15T18:19:29;99812.91;;;12.84;74.49
51603;BME280;37954;51.980;5.850;2022-11-15T18:23:43;99806.91;;;12.72;75.78
51603;BME280;37954;51.980;5.850;2022-11-15T18:27:54;99808.19;;;12.65;76.26
51603;BME280;37954;51.980;5.850;2022-11-15T18:32:06;99809.25;;;12.59;76.48
51603;BME280;37954;51.980;5.850;2022-11-15T18:36:24;99804.91;;;12.58;77.16
51603;BME280;37954;51.980;5.850;2022-11-15T18:40:36;99802.19;;;12.52;77.07
51603;BME280;37954;51.980;5.850;2022-11-15T18:44:48;99803.75;;;12.48;78.12
51603;BME280;37954;51.980;5.850;2022-11-15T18:49:00;99798.91;;;12.45;79.11
51603;BME280;37954;51.980;5.850;2022-11-15T18:53:12;99792.97;;;12.43;80.08
51603;BME280;37954;51.980;5.850;2022-11-15T18:57:24;99794.31;;;12.41;80.79
51603;BME280;37954;51.980;5.850;2022-11-15T19:01:38;99784.56;;;12.35;81.09
51603;BME280;37954;51.980;5.850;2022-11-15T19:05:50;99787.19;;;12.30;82.05
51603;BME280;37954;51.980;5.850;2022-11-15T19:10:02;99780.44;;;12.22;82.54
51603;BME280;37954;51.980;5.850;2022-11-15T19:14:15;99772.81;;;12.14;84.07
51603;BME280;37954;51.980;5.850;2022-11-15T19:18:28;99770.38;;;12.12;84.10
51603;BME280;37954;51.980;5.850;2022-11-15T19:22:40;99770.13;;;12.14;84.72
51603;BME280;37954;51.980;5.850;2022-11-15T19:26:51;99772.47;;;12.05;84.95
51603;BME280;37954;51.980;5.850;2022-11-15T19:31:09;99776.81;;;12.06;86.01
51603;BME280;37954;51.980;5.850;2022-11-15T19:35:22;99775.19;;;12.05;86.22
51603;BME280;37954;51.980;5.850;2022-11-15T19:39:33;99774.34;;;12.05;86.88
51603;BME280;37954;51.980;5.850;2022-11-15T19:43:51;99771.38;;;12.01;86.80
51603;BME280;37954;51.980;5.850;2022-11-15T19:48:03;99771.94;;;12.03;87.35
51603;BME280;37954;51.980;5.850;2022-11-15T19:52:15;99766.28;;;12.05;87.50
51603;BME280;37954;51.980;5.850;2022-11-15T19:56:26;99761.16;;;12.03;87.59
51603;BME280;37954;51.980;5.850;2022-11-15T20:00:38;99762.78;;;12.04;87.76
51603;BME280;37954;51.980;5.850;2022-11-15T20:04:50;99754.19;;;12.07;88.03
51603;BME280;37954;51.980;5.850;2022-11-15T20:09:02;99761.50;;;12.12;88.80
51603;BME280;37954;51.980;5.850;2022-11-15T20:13:13;99760.41;;;12.08;89.23
51603;BME280;37954;51.980;5.850;2022-11-15T20:17:25;99738.88;;;12.08;88.96
51603;BME280;37954;51.980;5.850;2022-11-15T20:21:36;99751.19;;;12.04;89.82
51603;BME280;37954;51.980;5.850;2022-11-15T20:25:48;99735.56;;;12.01;90.81
51603;BME280;37954;51.980;5.850;2022-11-15T20:30:00;99741.50;;;12.03;90.82
51603;BME280;37954;51.980;5.850;2022-11-15T20:34:12;99735.88;;;12.04;91.19
51603;BME280;37954;51.980;5.850;2022-11-15T20:38:23;99736.13;;;12.03;91.36
51603;BME280;37954;51.980;5.850;2022-11-15T20:42:35;99731.81;;;12.02;91.82
51603;BME280;37954;51.980;5.850;2022-11-15T20:46:47;99734.69;;;11.95;91.93
51603;BME280;37954;51.980;5.850;2022-11-15T20:51:04;99725.88;;;12.00;92.44
51603;BME280;37954;51.980;5.850;2022-11-15T20:55:16;99721.00;;;11.97;92.73
51603;BME280;37954;51.980;5.850;2022-11-15T20:59:28;99715.09;;;11.95;92.37
51603;BME280;37954;51.980;5.850;2022-11-15T21:03:39;99701.63;;;11.95;92.88
51603;BME280;37954;51.980;5.850;2022-11-15T21:07:51;99707.28;;;11.98;92.50
51603;BME280;37954;51.980;5.850;2022-11-15T21:12:03;99701.91;;;11.98;92.66
51603;BME280;37954;51.980;5.850;2022-11-15T21:16:23;99700.25;;;11.92;92.69
51603;BME280;37954;51.980;5.850;2022-11-15T21:20:35;99694.06;;;11.92;93.36
51603;BME280;37954;51.980;5.850;2022-11-15T21:24:46;99684.09;;;11.92;93.26
51603;BME280;37954;51.980;5.850;2022-11-15T21:28:58;99682.22;;;11.93;93.25
51603;BME280;37954;51.980;5.850;2022-11-15T21:33:10;99681.97;;;11.94;93.82
51603;BME280;37954;51.980;5.850;2022-11-15T21:37:21;99691.69;;;12.00;93.56
51603;BME280;37954;51.980;5.850;2022-11-15T21:41:33;99678.47;;;11.94;93.35
51603;BME280;37954;51.980;5.850;2022-11-15T21:45:59;99675.25;;;11.97;93.77
51603;BME280;37954;51.980;5.850;2022-11-15T21:50:11;99666.34;;;11.96;93.62
51603;BME280;37954;51.980;5.850;2022-11-15T21:54:23;99656.66;;;11.95;93.99
51603;BME280;37954;51.980;5.850;2022-11-15T21:58:34;99657.22;;;11.97;94.28
51603;BME280;37954;51.980;5.850;2022-11-15T22:02:46;99657.22;;;11.97;94.25
51603;BME280;37954;51.980;5.850;2022-11-15T22:06:58;99651.31;;;12.00;94.50
51603;BME280;37954;51.980;5.850;2022-11-15T22:11:10;99642.19;;;12.01;94.54
51603;BME280;37954;51.980;5.850;2022-11-15T22:15:21;99636.78;;;12.01;94.54
51603;BME280;37954;51.980;5.850;2022-11-15T22:19:33;99637.34;;;12.03;94.53
51603;BME280;37954;51.980;5.850;2022-11-15T22:23:45;99643.53;;;12.04;94.39
51603;BME280;37954;51.980;5.850;2022-11-15T22:27:56;99633.59;;;12.04;94.33
51603;BME280;37954;51.980;5.850;2022-11-15T22:32:08;99627.69;;;12.07;94.17
51603;BME280;37954;51.980;5.850;2022-11-15T22:36:19;99630.38;;;12.07;94.10
51603;BME280;37954;51.980;5.850;2022-11-15T22:40:31;99626.06;;;12.06;94.70
51603;BME280;37954;51.980;5.850;2022-11-15T22:44:43;99617.72;;;12.08;94.65
51603;BME280;37954;51.980;5.850;2022-11-15T22:48:54;99622.88;;;12.09;94.72
51603;BME280;37954;51.980;5.850;2022-11-15T22:53:12;99608.03;;;12.07;94.40
51603;BME280;37954;51.980;5.850;2022-11-15T22:57:24;99603.72;;;12.06;94.52
51603;BME280;37954;51.980;5.850;2022-11-15T23:01:35;99600.78;;;12.07;94.65
51603;BME280;37954;51.980;5.850;2022-11-15T23:05:47;99596.47;;;12.06;94.64
51603;BME280;37954;51.980;5.850;2022-11-15T23:09:59;99590.81;;;12.08;94.85
51603;BME280;37954;51.980;5.850;2022-11-15T23:14:30;99580.88;;;12.08;94.89
51603;BME280;37954;51.980;5.850;2022-11-15T23:18:41;99580.59;;;12.10;95.46
51603;BME280;37954;51.980;5.850;2022-11-15T23:22:53;99576.56;;;12.07;95.64
51603;BME280;37954;51.980;5.850;2022-11-15T23:27:06;99576.56;;;12.12;95.89
51603;BME280;37954;51.980;5.850;2022-11-15T23:31:18;99570.09;;;12.08;96.06
51603;BME280;37954;51.980;5.850;2022-11-15T23:35:54;99564.72;;;12.08;95.83
51603;BME280;37954;51.980;5.850;2022-11-15T23:40:06;99560.41;;;12.07;96.03
51603;BME280;37954;51.980;5.850;2022-11-15T23:44:18;99563.09;;;12.07;96.73
51603;BME280;37954;51.980;5.850;2022-11-15T23:48:30;99565.78;;;12.12;96.47
51603;BME280;37954;51.980;5.850;2022-11-15T23:52:42;99560.13;;;12.09;96.40
51603;BME280;37954;51.980;5.850;2022-11-15T23:56:53;99546.69;;;12.09;96.13
